Time;durP1;ratioP1;P1;durP2;ratioP2;P2;SDS_P1;SDS_P2;PMS_P1;PMS_P2;Temp;Humidity;BMP_temperature;BMP_pressure;BME280_temperature;BME280_humidity;BME280_pressure;Samples;Min_cycle;Max_cycle;Signal;HPM_P1;HPM_P2
2023/03/04 00:00:27;;;;;;;44.55;24.17;;;2.00;1.00;;;;;;7385632;19;20015;-72
2023/03/04 00:02:57;;;;;;;43.33;23.50;;;1.90;1.00;;;;;;7388794;19;20018;-72
2023/03/04 00:05:30;;;;;;;46.60;23.92;;;1.90;1.00;;;;;;7388679;19;20015;-72
2023/03/04 00:08:01;;;;;;;41.95;22.83;;;1.90;1.00;;;;;;7388796;19;20042;-72
2023/03/04 00:10:30;;;;;;;40.67;22.42;;;1.90;1.00;;;;;;7385920;19;20030;-72
2023/03/04 00:13:00;;;;;;;47.95;24.05;;;1.80;1.00;;;;;;7388294;19;20492;-73
2023/03/04 00:15:30;;;;;;;45.00;24.17;;;1.80;1.00;;;;;;7389085;19;20006;-72
2023/03/04 00:18:00;;;;;;;44.03;24.17;;;1.70;1.00;;;;;;7389564;19;20007;-72
2023/03/04 00:20:32;;;;;;;50.05;25.00;;;1.70;1.00;;;;;;7385520;19;20358;-72
2023/03/04 00:23:02;;;;;;;48.45;24.80;;;1.70;1.00;;;;;;7387674;19;20006;-72
2023/03/04 00:25:32;;;;;;;47.78;24.52;;;1.60;1.00;;;;;;7388650;19;20089;-72
2023/03/04 00:28:02;;;;;;;47.50;24.67;;;1.60;1.00;;;;;;7386440;19;20014;-72
2023/03/04 00:30:32;;;;;;;48.53;25.05;;;1.60;1.00;;;;;;7389616;19;20010;-72
2023/03/04 00:33:02;;;;;;;50.42;24.45;;;1.60;1.00;;;;;;7386110;19;20019;-72
2023/03/04 00:35:34;;;;;;;42.97;24.70;;;1.50;1.00;;;;;;7386734;19;20017;-72
2023/03/04 00:38:04;;;;;;;47.47;24.00;;;1.50;1.00;;;;;;7390367;19;20014;-72
2023/03/04 00:40:34;;;;;;;45.60;23.38;;;1.50;1.00;;;;;;7391556;19;20082;-72
2023/03/04 00:43:04;;;;;;;38.20;20.58;;;1.50;1.00;;;;;;7393994;19;20474;-72
2023/03/04 00:45:34;;;;;;;40.33;21.95;;;1.50;1.00;;;;;;7395482;19;20025;-72
2023/03/04 00:48:04;;;;;;;43.30;21.42;;;1.50;1.00;;;;;;7393980;19;20015;-72
2023/03/04 00:50:36;;;;;;;43.33;23.48;;;1.50;1.00;;;;;;7390975;19;20018;-72
2023/03/04 00:53:06;;;;;;;46.67;23.13;;;1.50;1.00;;;;;;7392914;19;20021;-72
2023/03/04 00:55:36;;;;;;;42.20;22.05;;;1.40;1.00;;;;;;7394875;19;20489;-73
2023/03/04 00:58:06;;;;;;;42.95;23.13;;;1.40;1.00;;;;;;7394677;19;20010;-71
2023/03/04 01:00:36;;;;;;;42.30;22.33;;;1.40;1.00;;;;;;7391079;19;20038;-72
2023/03/04 01:03:06;;;;;;;47.45;24.10;;;1.30;1.00;;;;;;7395565;19;20516;-72
2023/03/04 01:05:38;;;;;;;45.75;24.00;;;1.20;1.00;;;;;;7396607;19;20011;-72
2023/03/04 01:08:08;;;;;;;46.75;24.13;;;1.20;1.00;;;;;;7396581;19;20015;-72
2023/03/04 01:10:38;;;;;;;41.75;23.02;;;1.10;1.00;;;;;;7391640;19;20019;-72
2023/03/04 01:13:08;;;;;;;43.42;24.05;;;1.10;1.00;;;;;;7391813;19;20034;-72
2023/03/04 01:15:38;;;;;;;47.67;24.77;;;1.10;1.00;;;;;;7402926;19;20007;-71
2023/03/04 01:18:07;;;;;;;45.45;24.10;;;1.00;1.00;;;;;;7426740;19;20007;-71
2023/03/04 01:20:40;;;;;;;48.67;26.00;;;1.00;1.00;;;;;;7425161;19;20022;-71
2023/03/04 01:23:10;;;;;;;48.65;25.63;;;1.00;1.00;;;;;;7415378;19;20018;-71
2023/03/04 01:25:39;;;;;;;46.80;24.83;;;1.00;1.00;;;;;;7395154;19;20475;-71
2023/03/04 01:28:10;;;;;;;44.38;25.40;;;1.00;1.00;;;;;;7394258;19;20011;-72
2023/03/04 01:30:40;;;;;;;45.47;24.45;;;0.90;1.00;;;;;;7393751;19;20381;-72
2023/03/04 01:33:09;;;;;;;49.10;25.88;;;0.90;1.00;;;;;;7393565;19;20078;-72
2023/03/04 01:35:42;;;;;;;45.13;23.80;;;0.90;1.00;;;;;;7400343;19;20011;-72
2023/03/04 01:38:12;;;;;;;43.78;22.83;;;0.90;1.00;;;;;;7396772;19;20610;-72
2023/03/04 01:40:42;;;;;;;48.97;25.83;;;0.90;1.00;;;;;;7392713;19;20040;-72
2023/03/04 01:43:18;;;;;;;46.95;23.85;;;0.80;1.00;;;;;;7396036;19;20010;-72
2023/03/04 01:45:49;;;;;;;40.90;22.00;;;0.80;1.00;;;;;;7393654;19;20010;-72
2023/03/04 01:48:23;;;;;;;42.72;23.92;;;0.80;1.00;;;;;;7391793;19;20024;-72
2023/03/04 01:50:56;;;;;;;43.10;22.98;;;0.70;1.00;;;;;;7388604;19;20018;-72
2023/03/04 01:53:28;;;;;;;41.88;22.90;;;0.80;1.10;;;;;;7389879;19;20015;-71
2023/03/04 01:55:59;;;;;;;43.78;23.65;;;0.70;1.30;;;;;;7392956;19;20021;-71
2023/03/04 01:58:32;;;;;;;38.38;21.55;;;0.70;1.40;;;;;;7391575;19;20035;-71
2023/03/04 02:01:01;;;;;;;45.65;23.10;;;0.60;1.60;;;;;;7392135;19;20025;-71
2023/03/04 02:03:32;;;;;;;41.95;22.55;;;0.60;2.10;;;;;;7390934;19;20014;-73
2023/03/04 02:06:04;;;;;;;41.90;21.50;;;0.50;2.40;;;;;;7392786;19;20018;-72
2023/03/04 02:08:34;;;;;;;40.42;20.92;;;0.50;2.40;;;;;;7391179;19;20024;-71
2023/03/04 02:11:04;;;;;;;41.65;21.38;;;0.40;2.50;;;;;;7392106;19;20089;-71
2023/03/04 02:13:34;;;;;;;42.38;21.55;;;0.40;3.00;;;;;;7388632;19;20390;-71
2023/03/04 02:16:04;;;;;;;39.50;21.25;;;0.30;3.50;;;;;;7392508;19;20022;-71
2023/03/04 02:18:34;;;;;;;38.78;20.98;;;0.30;3.70;;;;;;7390711;19;20030;-71
2023/03/04 02:21:17;;;;;;;39.78;20.30;;;0.30;4.40;;;;;;7391618;19;20023;-71
2023/03/04 02:23:54;;;;;;;36.60;20.13;;;0.20;5.00;;;;;;7390184;19;20099;-72
2023/03/04 02:26:28;;;;;;;36.20;20.15;;;0.30;5.30;;;;;;7391992;19;20827;-72
2023/03/04 02:29:00;;;;;;;38.90;21.02;;;0.20;5.70;;;;;;7391969;19;20014;-71
2023/03/04 02:31:34;;;;;;;35.95;20.70;;;0.20;5.70;;;;;;7391137;19;20023;-72
2023/03/04 02:34:08;;;;;;;37.87;19.03;;;0.20;5.70;;;;;;7389850;19;20018;-71
2023/03/04 02:36:39;;;;;;;39.97;19.50;;;0.20;6.30;;;;;;7391765;19;20015;-71
2023/03/04 02:39:13;;;;;;;36.88;19.05;;;0.10;6.50;;;;;;7389433;19;20546;-72
2023/03/04 02:41:45;;;;;;;37.10;20.45;;;0.10;6.90;;;;;;7391736;19;20032;-72
2023/03/04 02:44:19;;;;;;;37.03;21.15;;;0.00;7.30;;;;;;7391038;19;20018;-72
2023/03/04 02:46:49;;;;;;;37.97;20.48;;;0.00;7.40;;;;;;7391330;19;20035;-72
2023/03/04 02:49:19;;;;;;;39.00;21.13;;;0.00;7.90;;;;;;7388808;19;20023;-72
2023/03/04 02:51:53;;;;;;;35.03;20.08;;;-0.10;8.40;;;;;;7391307;19;20086;-72
2023/03/04 02:54:25;;;;;;;41.65;21.38;;;-0.10;8.50;;;;;;7387319;19;20018;-72
2023/03/04 02:57:01;;;;;;;39.45;19.17;;;-0.10;8.70;;;;;;7397619;19;20347;-72
2023/03/04 02:59:31;;;;;;;35.67;19.85;;;-0.10;9.30;;;;;;7390238;19;20014;-72
2023/03/04 03:02:04;;;;;;;42.03;20.25;;;-0.20;9.20;;;;;;7392740;19;20034;-72
2023/03/04 03:04:34;;;;;;;44.38;21.50;;;-0.20;9.90;;;;;;7392835;19;20499;-72
2023/03/04 03:07:04;;;;;;;38.45;20.20;;;-0.20;10.00;;;;;;7390550;19;20014;-71
2023/03/04 03:09:34;;;;;;;41.03;22.30;;;-0.20;10.20;;;;;;7388204;19;20081;-71
2023/03/04 03:12:07;;;;;;;38.15;20.83;;;-0.20;10.80;;;;;;7393317;19;20074;-72
2023/03/04 03:14:37;;;;;;;38.13;20.67;;;-0.30;10.90;;;;;;7388562;19;20038;-71
2023/03/04 03:17:06;;;;;;;42.53;22.38;;;-0.30;11.70;;;;;;7390590;19;20467;-71
2023/03/04 03:19:36;;;;;;;46.70;22.08;;;-0.30;11.50;;;;;;7387257;19;20035;-72
2023/03/04 03:22:06;;;;;;;43.47;22.05;;;-0.30;11.50;;;;;;7390169;19;20524;-72
2023/03/04 03:24:36;;;;;;;37.67;20.77;;;-0.30;12.30;;;;;;7388693;19;20014;-72
2023/03/04 03:27:08;;;;;;;42.67;21.52;;;-0.30;12.20;;;;;;7390554;19;20018;-71
2023/03/04 03:29:38;;;;;;;41.97;22.75;;;-0.30;12.80;;;;;;7390050;19;20105;-72
2023/03/04 03:32:08;;;;;;;43.47;22.27;;;-0.40;12.30;;;;;;7389610;19;20016;-72
2023/03/04 03:34:38;;;;;;;40.58;23.08;;;-0.40;12.70;;;;;;7387912;19;20022;-71
2023/03/04 03:37:08;;;;;;;47.13;22.60;;;-0.40;12.60;;;;;;7389963;19;20506;-72
2023/03/04 03:39:37;;;;;;;45.42;23.67;;;-0.40;12.70;;;;;;7386698;19;20700;-71
2023/03/04 03:42:10;;;;;;;44.80;23.05;;;-0.40;13.00;;;;;;7389019;19;20018;-72
2023/03/04 03:44:40;;;;;;;49.58;24.13;;;-0.40;13.40;;;;;;7389678;19;20010;-72
2023/03/04 03:47:10;;;;;;;44.08;22.40;;;-0.50;13.60;;;;;;7389289;19;20034;-72
2023/03/04 03:49:39;;;;;;;43.63;23.30;;;-0.50;14.80;;;;;;7386605;19;20015;-72
2023/03/04 03:52:10;;;;;;;41.45;21.90;;;-0.60;14.70;;;;;;7389732;19;20015;-72
2023/03/04 03:54:39;;;;;;;40.30;21.65;;;-0.60;14.70;;;;;;7387823;19;20466;-72
2023/03/04 03:57:12;;;;;;;40.60;21.60;;;-0.70;14.80;;;;;;7388901;19;20034;-72
2023/03/04 03:59:42;;;;;;;45.92;23.08;;;-0.70;16.00;;;;;;7386511;19;20024;-72
2023/03/04 04:02:12;;;;;;;54.47;25.08;;;-0.70;16.00;;;;;;7389594;19;20014;-72
2023/03/04 04:04:42;;;;;;;49.42;24.10;;;-0.70;16.00;;;;;;7388981;19;20090;-72
2023/03/04 04:07:11;;;;;;;49.05;25.13;;;-0.70;16.40;;;;;;7388755;19;20015;-72
2023/03/04 04:09:41;;;;;;;50.00;23.77;;;-0.70;16.60;;;;;;7385748;19;20057;-71
2023/03/04 04:12:15;;;;;;;48.40;25.45;;;-0.70;17.50;;;;;;7388197;19;20081;-71
2023/03/04 04:14:45;;;;;;;50.90;26.05;;;-0.70;17.30;;;;;;7386887;19;20024;-71
2023/03/04 04:17:15;;;;;;;50.60;25.27;;;-0.80;17.20;;;;;;7395591;19;20390;-72
2023/03/04 04:19:45;;;;;;;52.30;25.88;;;-0.80;17.80;;;;;;7385551;19;20078;-72
2023/03/04 04:22:16;;;;;;;54.83;27.70;;;-0.70;18.30;;;;;;7388008;19;20024;-72
2023/03/04 04:24:46;;;;;;;56.42;24.90;;;-0.80;18.20;;;;;;7387994;19;20014;-72
2023/03/04 04:27:19;;;;;;;56.38;27.25;;;-0.80;18.60;;;;;;7388276;19;20035;-70
2023/03/04 04:29:48;;;;;;;53.45;26.65;;;-0.90;18.90;;;;;;7387927;19;20019;-71
2023/03/04 04:32:19;;;;;;;56.22;25.25;;;-0.90;18.90;;;;;;7388051;19;20039;-72
2023/03/04 04:34:49;;;;;;;53.65;24.80;;;-0.90;19.60;;;;;;7386383;19;20018;-71
2023/03/04 04:37:19;;;;;;;51.38;25.92;;;-1.00;19.40;;;;;;7387791;19;20010;-71
2023/03/04 04:39:50;;;;;;;56.03;26.30;;;-1.00;20.10;;;;;;7385313;19;20083;-72
2023/03/04 04:42:23;;;;;;;59.65;27.98;;;-1.00;20.10;;;;;;7386113;19;20035;-71
2023/03/04 04:44:52;;;;;;;58.05;27.80;;;-1.00;20.70;;;;;;7389072;19;20010;-71
2023/03/04 04:47:22;;;;;;;55.10;25.73;;;-1.10;20.60;;;;;;7390353;19;20296;-70
2023/03/04 04:49:52;;;;;;;59.97;27.00;;;-1.10;21.30;;;;;;7386690;19;20030;-72
2023/03/04 04:52:22;;;;;;;56.80;26.67;;;-1.10;21.60;;;;;;7388015;19;20093;-72
2023/03/04 04:54:52;;;;;;;55.80;26.65;;;-1.10;21.50;;;;;;7386507;19;20021;-71
2023/03/04 04:57:24;;;;;;;61.78;29.52;;;-1.10;21.90;;;;;;7413758;19;20018;-72
2023/03/04 04:59:54;;;;;;;57.53;27.95;;;-1.10;22.50;;;;;;7418006;19;20018;-71
2023/03/04 05:02:24;;;;;;;61.28;29.08;;;-1.10;22.50;;;;;;7421308;19;20054;-69
2023/03/04 05:04:53;;;;;;;57.53;27.98;;;-1.10;22.50;;;;;;7410248;19;20011;-70
2023/03/04 05:07:24;;;;;;;58.53;28.02;;;-1.10;22.60;;;;;;7404630;19;20054;-69
2023/03/04 05:09:53;;;;;;;59.55;26.70;;;-1.20;22.60;;;;;;7393636;19;20014;-70
2023/03/04 05:12:26;;;;;;;61.58;28.27;;;-1.20;23.10;;;;;;7387041;19;20082;-71
2023/03/04 05:14:56;;;;;;;61.83;27.65;;;-1.20;23.80;;;;;;7384261;19;20019;-71
2023/03/04 05:17:25;;;;;;;63.95;29.30;;;-1.30;23.90;;;;;;7386752;19;20017;-71
2023/03/04 05:19:55;;;;;;;61.40;27.80;;;-1.30;24.20;;;;;;7383555;19;20022;-71
2023/03/04 05:22:25;;;;;;;63.85;27.80;;;-1.30;25.20;;;;;;7386297;19;20015;-71
2023/03/04 05:24:56;;;;;;;61.50;27.83;;;-1.30;25.50;;;;;;7388362;19;20532;-72
2023/03/04 05:27:28;;;;;;;67.97;28.40;;;-1.30;25.70;;;;;;7393623;19;20022;-71
2023/03/04 05:30:01;;;;;;;64.18;28.75;;;-1.30;25.80;;;;;;7393485;19;20014;-72
2023/03/04 05:32:31;;;;;;;67.15;29.05;;;-1.40;25.70;;;;;;7393461;19;20011;-71
2023/03/04 05:35:01;;;;;;;60.72;27.88;;;-1.40;25.80;;;;;;7391853;19;20011;-72
2023/03/04 05:37:30;;;;;;;61.67;28.45;;;-1.40;27.10;;;;;;7393516;19;20092;-71
2023/03/04 05:40:00;;;;;;;70.25;29.73;;;-1.40;27.10;;;;;;7390153;19;20014;-71
2023/03/04 05:42:32;;;;;;;64.78;29.23;;;-1.40;27.30;;;;;;7392989;19;20014;-71
2023/03/04 05:45:02;;;;;;;67.80;28.98;;;-1.40;27.30;;;;;;7393175;19;20021;-72
2023/03/04 05:47:32;;;;;;;63.67;28.58;;;-1.50;27.60;;;;;;7392865;19;20030;-71
2023/03/04 05:50:02;;;;;;;67.32;29.33;;;-1.50;27.50;;;;;;7389419;19;20098;-71
2023/03/04 05:52:32;;;;;;;69.30;28.77;;;-1.50;27.20;;;;;;7393027;19;20556;-71
2023/03/04 05:55:01;;;;;;;66.47;28.80;;;-1.60;27.30;;;;;;7391903;19;20017;-72
2023/03/04 05:57:34;;;;;;;66.68;31.00;;;-1.60;27.40;;;;;;7393015;19;20014;-71
2023/03/04 06:00:05;;;;;;;61.60;28.65;;;-1.50;27.70;;;;;;7389469;19;20311;-71
2023/03/04 06:02:36;;;;;;;71.30;32.92;;;-1.50;28.30;;;;;;7392397;19;20031;-71
2023/03/04 06:05:06;;;;;;;68.68;29.95;;;-1.50;28.10;;;;;;7393084;19;20347;-71
2023/03/04 06:07:36;;;;;;;67.72;30.13;;;-1.50;28.30;;;;;;7392480;19;20021;-71
2023/03/04 06:10:08;;;;;;;64.55;29.02;;;-1.50;28.50;;;;;;7387767;19;20412;-71
2023/03/04 06:12:40;;;;;;;67.50;29.33;;;-1.50;28.40;;;;;;7392091;19;20073;-71
2023/03/04 06:15:11;;;;;;;64.60;28.00;;;-1.50;28.60;;;;;;7391704;19;20020;-71
2023/03/04 06:17:43;;;;;;;68.40;29.02;;;-1.50;28.10;;;;;;7390305;19;20522;-72
2023/03/04 06:20:14;;;;;;;76.72;31.58;;;-1.50;28.50;;;;;;7388606;19;20469;-72
2023/03/04 06:22:44;;;;;;;68.68;28.77;;;-1.40;28.10;;;;;;7392031;19;20014;-71
2023/03/04 06:25:14;;;;;;;66.88;28.45;;;-1.40;28.00;;;;;;7391951;19;20018;-70
2023/03/04 06:27:46;;;;;;;69.72;28.35;;;-1.40;27.90;;;;;;7391526;19;20018;-71
2023/03/04 06:30:19;;;;;;;69.10;30.10;;;-1.40;27.90;;;;;;7392145;19;20719;-71
2023/03/04 06:32:49;;;;;;;66.93;29.92;;;-1.40;27.50;;;;;;7391381;19;20014;-72
2023/03/04 06:35:19;;;;;;;72.28;30.95;;;-1.40;27.70;;;;;;7389225;19;20113;-70
2023/03/04 06:37:49;;;;;;;73.55;30.88;;;-1.40;27.60;;;;;;7391545;19;20014;-72
2023/03/04 06:40:19;;;;;;;68.50;30.67;;;-1.40;27.60;;;;;;7388622;19;20022;-71
2023/03/04 06:42:51;;;;;;;70.32;30.08;;;-1.30;27.90;;;;;;7391566;19;20014;-72
2023/03/04 06:45:21;;;;;;;72.57;30.15;;;-1.20;27.00;;;;;;7391720;19;20018;-71
2023/03/04 06:47:51;;;;;;;68.00;28.70;;;-1.10;27.10;;;;;;7391164;19;20021;-71
2023/03/04 06:50:21;;;;;;;63.95;29.08;;;-1.10;26.30;;;;;;7387989;19;20078;-71
2023/03/04 06:52:51;;;;;;;64.38;28.88;;;-1.00;26.60;;;;;;7391010;19;20029;-72
2023/03/04 06:55:21;;;;;;;62.72;28.38;;;-0.90;26.00;;;;;;7390025;19;20025;-72
2023/03/04 06:57:53;;;;;;;58.47;27.98;;;-0.90;25.80;;;;;;7390600;19;20017;-71
2023/03/04 07:00:25;;;;;;;68.55;29.08;;;-0.80;24.80;;;;;;7387249;19;20002;-71
2023/03/04 07:02:54;;;;;;;57.97;27.38;;;-0.80;23.20;;;;;;7390516;19;20501;-71
2023/03/04 07:05:24;;;;;;;60.25;27.05;;;-0.80;22.80;;;;;;7390777;19;20570;-72
2023/03/04 07:07:54;;;;;;;56.72;25.27;;;-0.70;23.00;;;;;;7390444;19;20466;-71
2023/03/04 07:10:24;;;;;;;50.60;25.27;;;-0.70;22.70;;;;;;7385220;19;20471;-72
2023/03/04 07:12:56;;;;;;;53.63;26.42;;;-0.70;21.40;;;;;;7390035;19;20010;-71
2023/03/04 07:15:26;;;;;;;62.83;28.00;;;-0.60;21.70;;;;;;7389769;19;20379;-72
2023/03/04 07:17:56;;;;;;;60.42;27.67;;;-0.60;20.10;;;;;;7390035;19;20022;-71
2023/03/04 07:20:26;;;;;;;53.55;26.80;;;-0.60;21.30;;;;;;7385927;19;20025;-71
2023/03/04 07:22:55;;;;;;;53.88;26.27;;;-0.50;20.20;;;;;;7390438;19;20463;-71
2023/03/04 07:25:25;;;;;;;50.90;24.83;;;-0.50;18.70;;;;;;7325769;19;20010;-72
2023/03/04 07:27:57;;;;;;;46.85;24.08;;;-0.50;19.60;;;;;;7388861;19;20101;-71
2023/03/04 07:30:27;;;;;;;54.45;26.08;;;-0.50;20.10;;;;;;7359554;19;20014;-71
2023/03/04 07:32:59;;;;;;;49.28;24.77;;;-0.60;20.70;;;;;;7361506;19;20063;-72
2023/03/04 07:35:29;;;;;;;51.28;23.60;;;-0.60;20.10;;;;;;7360888;19;20022;-72
2023/03/04 07:37:59;;;;;;;51.03;24.70;;;-0.50;20.60;;;;;;7382390;19;20022;-70
2023/03/04 07:40:28;;;;;;;49.15;24.48;;;-0.50;19.10;;;;;;7357972;19;20018;-70
2023/03/04 07:43:01;;;;;;;46.65;22.45;;;-0.40;21.10;;;;;;7360742;19;20060;-72
2023/03/04 07:45:31;;;;;;;44.08;21.23;;;-0.40;20.30;;;;;;7361739;19;20029;-72
2023/03/04 07:48:01;;;;;;;43.20;22.38;;;-0.50;19.50;;;;;;7359155;19;20089;-72
2023/03/04 07:50:31;;;;;;;48.50;23.40;;;-0.40;19.10;;;;;;7359023;19;20017;-72
2023/03/04 07:53:01;;;;;;;47.15;21.90;;;-0.30;18.10;;;;;;7382746;19;20422;-72
2023/03/04 07:55:31;;;;;;;51.65;23.88;;;-0.30;17.60;;;;;;7359799;19;20022;-71
2023/03/04 07:58:04;;;;;;;49.70;23.25;;;-0.10;18.30;;;;;;7361191;19;20010;-71
2023/03/04 08:00:34;;;;;;;45.40;22.05;;;-0.20;17.30;;;;;;7358717;19;20015;-71
2023/03/04 08:03:03;;;;;;;51.55;23.80;;;0.00;17.90;;;;;;7360611;19;20370;-72
2023/03/04 08:05:33;;;;;;;45.65;21.45;;;-0.30;16.20;;;;;;7361534;19;20516;-71
2023/03/04 08:08:03;;;;;;;49.58;23.52;;;-0.20;18.20;;;;;;7381978;19;20074;-71
2023/03/04 08:10:33;;;;;;;44.28;22.10;;;-0.30;16.20;;;;;;7357159;19;20035;-72
2023/03/04 08:13:05;;;;;;;50.47;23.88;;;-0.30;17.70;;;;;;7359778;19;20621;-71
2023/03/04 08:15:36;;;;;;;52.67;25.52;;;-0.40;18.70;;;;;;7360231;19;20110;-71
2023/03/04 08:18:06;;;;;;;57.63;26.23;;;-0.20;19.10;;;;;;7360642;19;20022;-72
2023/03/04 08:20:36;;;;;;;54.63;25.30;;;-0.20;17.50;;;;;;7357523;19;20014;-71
2023/03/04 08:23:06;;;;;;;46.20;23.48;;;-0.20;18.10;;;;;;7381782;19;20355;-71
2023/03/04 08:25:36;;;;;;;53.30;25.13;;;0.00;18.60;;;;;;7367851;19;20470;-72
2023/03/04 08:28:09;;;;;;;54.83;24.95;;;-0.10;16.40;;;;;;7391857;19;20010;-71
2023/03/04 08:30:39;;;;;;;49.45;23.75;;;0.00;16.50;;;;;;7389550;19;20044;-71
2023/03/04 08:33:09;;;;;;;50.13;24.02;;;0.10;16.50;;;;;;7387817;19;20022;-70
2023/03/04 08:35:40;;;;;;;54.42;23.65;;;0.10;15.60;;;;;;7387155;19;20033;-72
2023/03/04 08:38:10;;;;;;;43.50;21.92;;;0.40;15.40;;;;;;7387412;19;20018;-72
2023/03/04 08:40:39;;;;;;;50.53;23.65;;;0.50;14.00;;;;;;7382522;19;20018;-72
2023/03/04 08:43:12;;;;;;;43.28;20.70;;;0.70;13.40;;;;;;7386209;19;20014;-71
2023/03/04 08:45:42;;;;;;;48.38;22.00;;;0.80;11.60;;;;;;7386955;19;20021;-71
2023/03/04 08:48:13;;;;;;;41.25;21.13;;;0.90;10.70;;;;;;7387257;19;20484;-70
2023/03/04 08:50:44;;;;;;;42.17;19.55;;;1.00;7.80;;;;;;7382903;19;20013;-71
2023/03/04 08:53:15;;;;;;;38.15;19.30;;;0.80;6.80;;;;;;7386935;19;20011;-71
2023/03/04 08:55:45;;;;;;;36.80;18.75;;;0.90;7.40;;;;;;7386211;19;20014;-72
2023/03/04 08:58:17;;;;;;;40.78;19.00;;;1.00;7.90;;;;;;7386178;19;20021;-72
2023/03/04 09:00:50;;;;;;;36.88;18.38;;;0.80;4.20;;;;;;7391055;19;20019;-71
2023/03/04 09:03:21;;;;;;;36.17;18.42;;;0.70;6.30;;;;;;7394321;19;20014;-71
2023/03/04 09:05:51;;;;;;;39.40;18.42;;;0.90;7.40;;;;;;7394441;19;20030;-72
2023/03/04 09:08:21;;;;;;;36.97;17.90;;;1.10;7.90;;;;;;7393431;19;20014;-72
2023/03/04 09:10:54;;;;;;;39.80;18.65;;;1.40;6.70;;;;;;7391154;19;20039;-71
2023/03/04 09:13:27;;;;;;;35.67;18.00;;;1.10;3.20;;;;;;7392560;19;20019;-70
2023/03/04 09:15:57;;;;;;;32.55;17.33;;;1.20;4.30;;;;;;7393641;19;20039;-71
2023/03/04 09:18:28;;;;;;;34.67;17.42;;;1.00;3.40;;;;;;7392022;19;20010;-71
2023/03/04 09:20:58;;;;;;;40.00;18.55;;;1.20;3.70;;;;;;7393283;19;20022;-71
2023/03/04 09:23:28;;;;;;;36.67;18.70;;;1.30;2.30;;;;;;7393765;19;20606;-70
2023/03/04 09:25:58;;;;;;;41.60;18.98;;;1.50;3.10;;;;;;7394077;19;20018;-70
2023/03/04 09:28:30;;;;;;;35.00;17.30;;;1.80;1.20;;;;;;7392601;19;20035;-70
2023/03/04 09:31:00;;;;;;;36.13;16.92;;;2.00;1.00;;;;;;7392962;19;20513;-70
2023/03/04 09:33:30;;;;;;;32.60;17.00;;;2.00;1.00;;;;;;7392021;19;20038;-70
2023/03/04 09:36:00;;;;;;;31.58;15.55;;;1.80;1.00;;;;;;7393499;19;20018;-71
2023/03/04 09:38:30;;;;;;;34.97;17.33;;;1.80;1.00;;;;;;7391789;19;20015;-71
2023/03/04 09:41:02;;;;;;;31.40;17.00;;;2.00;1.00;;;;;;7392194;19;20022;-71
2023/03/04 09:43:35;;;;;;;31.52;16.38;;;2.20;1.00;;;;;;7391736;19;20027;-71
2023/03/04 09:46:09;;;;;;;30.42;16.40;;;2.20;1.00;;;;;;7366334;19;20593;-71
2023/03/04 09:48:45;;;;;;;30.35;14.57;;;1.80;1.00;;;;;;7386333;19;20014;-71
2023/03/04 09:51:23;;;;;;;31.80;16.58;;;2.30;1.00;;;;;;7362936;19;20109;-72
2023/03/04 09:54:08;;;;;;;37.45;17.23;;;2.60;1.00;;;;;;7364684;19;20014;-72
2023/03/04 09:56:40;;;;;;;31.73;16.83;;;2.40;1.00;;;;;;7364060;19;20020;-72
2023/03/04 09:59:20;;;;;;;32.63;17.45;;;2.50;1.00;;;;;;7362705;19;20015;-72
2023/03/04 10:01:52;;;;;;;35.25;17.00;;;2.30;1.00;;;;;;7364462;19;20022;-72
2023/03/04 10:04:33;;;;;;;31.70;16.83;;;2.60;1.00;;;;;;7385089;19;20086;-71
2023/03/04 10:07:06;;;;;;;29.02;15.98;;;2.70;1.00;;;;;;7363822;19;20021;-71
2023/03/04 10:09:48;;;;;;;31.85;16.77;;;2.20;1.00;;;;;;7360638;19;20094;-72
2023/03/04 10:12:24;;;;;;;35.05;17.30;;;2.90;1.00;;;;;;7362343;19;20015;-71
2023/03/04 10:15:01;;;;;;;33.28;16.90;;;2.90;1.00;;;;;;7364216;19;20018;-71
2023/03/04 10:17:38;;;;;;;35.00;17.02;;;2.60;1.00;;;;;;7363346;19;20035;-71
2023/03/04 10:20:13;;;;;;;32.03;16.35;;;2.40;1.00;;;;;;7360989;19;20010;-70
2023/03/04 10:22:45;;;;;;;35.45;17.35;;;2.10;1.00;;;;;;7363834;19;20017;-71
2023/03/04 10:25:21;;;;;;;42.50;19.25;;;2.60;1.00;;;;;;7384871;19;20121;-71
2023/03/04 10:27:53;;;;;;;34.63;18.50;;;2.40;1.00;;;;;;7363592;19;20399;-71
2023/03/04 10:30:38;;;;;;;35.95;17.60;;;2.60;1.00;;;;;;7360097;19;20010;-71
2023/03/04 10:33:14;;;;;;;34.45;17.90;;;2.50;1.00;;;;;;7363329;19;20014;-72
2023/03/04 10:35:47;;;;;;;33.70;17.50;;;2.50;1.00;;;;;;7363887;19;20508;-72
2023/03/04 10:38:17;;;;;;;35.60;18.40;;;2.90;1.00;;;;;;7363064;19;20098;-71
2023/03/04 10:40:47;;;;;;;32.47;16.88;;;3.00;1.00;;;;;;7362248;19;20010;-71
2023/03/04 10:43:19;;;;;;;34.15;18.27;;;2.80;1.00;;;;;;7384650;19;20014;-71
2023/03/04 10:45:57;;;;;;;34.92;17.52;;;2.60;1.00;;;;;;7367767;19;20027;-71
2023/03/04 10:48:29;;;;;;;34.28;18.23;;;2.60;1.00;;;;;;7389586;19;20403;-72
2023/03/04 10:51:14;;;;;;;37.97;19.40;;;2.80;1.00;;;;;;7390778;19;20021;-71
2023/03/04 10:53:45;;;;;;;36.42;19.67;;;2.80;1.00;;;;;;7390643;19;20047;-71
2023/03/04 10:56:37;;;;;;;41.97;18.20;;;2.90;1.00;;;;;;7389745;19;20046;-71
2023/03/04 10:59:32;;;;;;;32.25;18.00;;;2.80;1.00;;;;;;7386413;19;20018;-72
2023/03/04 11:02:19;;;;;;;35.58;18.40;;;3.20;1.00;;;;;;7388616;19;20086;-72
2023/03/04 11:04:55;;;;;;;37.28;18.77;;;3.00;1.00;;;;;;7390662;19;20018;-72
2023/03/04 11:07:27;;;;;;;39.47;20.45;;;3.20;1.00;;;;;;7390689;19;20458;-72
2023/03/04 11:09:56;;;;;;;41.90;20.80;;;3.30;1.00;;;;;;7387258;19;20013;-71
2023/03/04 11:12:35;;;;;;;39.10;20.55;;;2.90;1.00;;;;;;7391312;19;20022;-72
2023/03/04 11:15:17;;;;;;;36.15;19.85;;;3.00;1.00;;;;;;7390206;19;20370;-70
2023/03/04 11:17:54;;;;;;;42.85;21.85;;;2.90;1.00;;;;;;7389311;19;20026;-72
2023/03/04 11:20:32;;;;;;;42.47;21.88;;;3.10;1.00;;;;;;7386346;19;20089;-72
2023/03/04 11:23:06;;;;;;;40.80;20.67;;;2.70;1.00;;;;;;7386803;19;20031;-71
2023/03/04 11:25:38;;;;;;;42.65;21.15;;;2.90;1.00;;;;;;7388983;19;20400;-72
2023/03/04 11:28:15;;;;;;;40.67;20.83;;;2.90;1.00;;;;;;7388691;19;20023;-72
2023/03/04 11:30:48;;;;;;;42.72;21.10;;;2.70;1.00;;;;;;7386866;19;20014;-72
2023/03/04 11:33:28;;;;;;;49.72;22.25;;;2.80;1.00;;;;;;7387706;19;20082;-71
2023/03/04 11:36:09;;;;;;;40.03;22.10;;;2.50;1.00;;;;;;7389117;19;20035;-72
2023/03/04 11:38:45;;;;;;;45.25;22.60;;;2.60;1.00;;;;;;7385979;19;20099;-71
2023/03/04 11:41:18;;;;;;;43.28;21.80;;;2.70;1.00;;;;;;7388568;19;20014;-71
2023/03/04 11:43:49;;;;;;;48.53;22.63;;;2.70;1.00;;;;;;7389404;19;20029;-71
2023/03/04 11:46:53;;;;;;;47.17;22.90;;;2.70;1.00;;;;;;7388857;19;20024;-72
2023/03/04 11:49:40;;;;;;;44.47;22.95;;;2.60;1.00;;;;;;7386449;19;20478;-72
2023/03/04 11:52:18;;;;;;;44.33;22.58;;;2.70;1.00;;;;;;7388482;19;20616;-72
2023/03/04 11:55:02;;;;;;;45.88;22.38;;;2.70;1.00;;;;;;7387051;19;20018;-71
2023/03/04 11:57:42;;;;;;;47.72;23.40;;;2.60;1.00;;;;;;7388432;19;20011;-71
2023/03/04 12:00:27;;;;;;;48.08;23.35;;;2.60;1.00;;;;;;7385945;19;20070;-71
2023/03/04 12:03:16;;;;;;;50.42;22.58;;;2.50;1.00;;;;;;7388947;19;20029;-71
2023/03/04 12:05:58;;;;;;;48.17;23.27;;;2.60;1.00;;;;;;7387750;19;20390;-71
2023/03/04 12:08:49;;;;;;;48.08;22.45;;;2.70;1.00;;;;;;7385462;19;20085;-71
2023/03/04 12:11:31;;;;;;;56.53;23.67;;;2.80;1.00;;;;;;7358197;19;20018;-71
2023/03/04 12:14:12;;;;;;;50.03;24.95;;;2.50;1.00;;;;;;7386196;19;20121;-71
2023/03/04 12:17:08;;;;;;;49.35;23.77;;;2.60;1.00;;;;;;7361209;19;20038;-71
2023/03/04 12:19:52;;;;;;;52.50;24.27;;;2.50;1.00;;;;;;7356646;19;20028;-71
2023/03/04 12:22:35;;;;;;;55.45;26.25;;;2.60;1.00;;;;;;7381680;19;20034;-72
2023/03/04 12:25:28;;;;;;;52.90;25.48;;;2.70;1.00;;;;;;7359400;19;20021;-71
2023/03/04 12:28:05;;;;;;;51.63;22.70;;;2.80;1.00;;;;;;7359569;19;20011;-71
2023/03/04 12:30:53;;;;;;;56.58;23.05;;;2.60;1.00;;;;;;7355740;19;20348;-71
2023/03/04 12:33:34;;;;;;;55.08;24.85;;;2.40;1.00;;;;;;7359682;19;20014;-71
2023/03/04 12:36:15;;;;;;;51.97;25.33;;;2.50;1.00;;;;;;7366417;19;20011;-72
2023/03/04 12:39:11;;;;;;;51.05;25.67;;;2.60;1.00;;;;;;7364879;19;20038;-70
2023/03/04 12:41:48;;;;;;;50.63;24.33;;;2.60;1.00;;;;;;7366745;19;20730;-71
2023/03/04 12:44:19;;;;;;;58.60;24.63;;;2.50;1.00;;;;;;7366737;19;20490;-72
2023/03/04 12:47:10;;;;;;;50.38;23.30;;;2.80;1.00;;;;;;7366279;19;20519;-72
2023/03/04 12:49:53;;;;;;;50.45;24.25;;;2.70;1.00;;;;;;7363612;19;20014;-70
2023/03/04 12:52:30;;;;;;;45.53;22.65;;;2.60;1.00;;;;;;7387811;19;20027;-71
2023/03/04 12:55:06;;;;;;;47.97;23.95;;;2.50;1.00;;;;;;7366702;19;20015;-71
2023/03/04 12:57:37;;;;;;;46.90;20.88;;;2.50;1.00;;;;;;7365773;19;20032;-71
2023/03/04 13:00:22;;;;;;;47.70;23.33;;;2.50;1.00;;;;;;7360995;19;20416;-71
2023/03/04 13:03:10;;;;;;;43.35;20.75;;;2.70;1.00;;;;;;7366207;19;20019;-71
2023/03/04 13:05:56;;;;;;;42.13;20.52;;;2.50;1.00;;;;;;7366635;19;20514;-71